sensor_id;sensor_type;location;lat;lon;timestamp;P1;durP1;ratioP1;P2;durP2;ratioP2
49858;SDS011;35756;52.346;13.622;2023-04-25T00:02:00;9.10;;;8.40;;
49858;SDS011;35756;52.346;13.622;2023-04-25T00:04:26;12.48;;;11.20;;
49858;SDS011;35756;52.346;13.622;2023-04-25T00:06:52;9.90;;;8.95;;
49858;SDS011;35756;52.346;13.622;2023-04-25T00:09:18;13.68;;;12.52;;
49858;SDS011;35756;52.346;13.622;2023-04-25T00:11:43;16.25;;;15.25;;
49858;SDS011;35756;52.346;13.622;2023-04-25T00:14:09;19.58;;;18.27;;
49858;SDS011;35756;52.346;13.622;2023-04-25T00:16:34;11.18;;;9.98;;
49858;SDS011;35756;52.346;13.622;2023-04-25T00:19:00;14.52;;;13.40;;
49858;SDS011;35756;52.346;13.622;2023-04-25T00:21:27;19.30;;;17.70;;
49858;SDS011;35756;52.346;13.622;2023-04-25T00:23:53;22.20;;;20.90;;
49858;SDS011;35756;52.346;13.622;2023-04-25T00:26:18;21.58;;;19.70;;
49858;SDS011;35756;52.346;13.622;2023-04-25T00:28:45;29.13;;;26.98;;
49858;SDS011;35756;52.346;13.622;2023-04-25T00:31:11;31.90;;;30.05;;
49858;SDS011;35756;52.346;13.622;2023-04-25T00:33:36;49.17;;;46.17;;
49858;SDS011;35756;52.346;13.622;2023-04-25T00:36:01;41.67;;;38.92;;
49858;SDS011;35756;52.346;13.622;2023-04-25T00:38:26;229.05;;;214.52;;
49858;SDS011;35756;52.346;13.622;2023-04-25T00:40:52;42.53;;;40.28;;
49858;SDS011;35756;52.346;13.622;2023-04-25T00:43:17;43.72;;;41.38;;
49858;SDS011;35756;52.346;13.622;2023-04-25T00:45:43;48.55;;;45.58;;
49858;SDS011;35756;52.346;13.622;2023-04-25T00:48:08;34.45;;;32.17;;
49858;SDS011;35756;52.346;13.622;2023-04-25T00:50:34;33.42;;;30.85;;
49858;SDS011;35756;52.346;13.622;2023-04-25T00:52:59;34.47;;;32.38;;
49858;SDS011;35756;52.346;13.622;2023-04-25T00:55:25;28.85;;;27.08;;
49858;SDS011;35756;52.346;13.622;2023-04-25T00:57:50;35.58;;;33.53;;
49858;SDS011;35756;52.346;13.622;2023-04-25T01:00:16;26.38;;;24.73;;
49858;SDS011;35756;52.346;13.622;2023-04-25T01:02:42;23.10;;;21.50;;
49858;SDS011;35756;52.346;13.622;2023-04-25T01:05:08;22.17;;;20.70;;
49858;SDS011;35756;52.346;13.622;2023-04-25T01:07:33;24.70;;;23.20;;
49858;SDS011;35756;52.346;13.622;2023-04-25T01:09:59;18.05;;;15.30;;
49858;SDS011;35756;52.346;13.622;2023-04-25T01:12:24;25.67;;;23.83;;
49858;SDS011;35756;52.346;13.622;2023-04-25T01:14:49;11.70;;;10.55;;
49858;SDS011;35756;52.346;13.622;2023-04-25T01:17:15;17.70;;;16.08;;
49858;SDS011;35756;52.346;13.622;2023-04-25T01:19:42;19.52;;;17.88;;
49858;SDS011;35756;52.346;13.622;2023-04-25T01:22:07;21.35;;;19.77;;
49858;SDS011;35756;52.346;13.622;2023-04-25T01:24:35;21.23;;;19.55;;
49858;SDS011;35756;52.346;13.622;2023-04-25T01:27:00;21.42;;;19.90;;
49858;SDS011;35756;52.346;13.622;2023-04-25T01:29:27;19.30;;;17.65;;
49858;SDS011;35756;52.346;13.622;2023-04-25T01:31:52;15.93;;;14.73;;
49858;SDS011;35756;52.346;13.622;2023-04-25T01:34:18;24.70;;;23.10;;
49858;SDS011;35756;52.346;13.622;2023-04-25T01:36:43;25.90;;;23.92;;
49858;SDS011;35756;52.346;13.622;2023-04-25T01:39:09;33.22;;;31.17;;
49858;SDS011;35756;52.346;13.622;2023-04-25T01:41:34;30.40;;;28.35;;
49858;SDS011;35756;52.346;13.622;2023-04-25T01:44:00;28.80;;;26.75;;
49858;SDS011;35756;52.346;13.622;2023-04-25T01:46:26;27.85;;;26.05;;
49858;SDS011;35756;52.346;13.622;2023-04-25T01:48:51;29.15;;;27.17;;
49858;SDS011;35756;52.346;13.622;2023-04-25T01:51:17;34.97;;;32.40;;
49858;SDS011;35756;52.346;13.622;2023-04-25T01:53:42;34.15;;;32.00;;
49858;SDS011;35756;52.346;13.622;2023-04-25T01:56:08;37.75;;;35.50;;
49858;SDS011;35756;52.346;13.622;2023-04-25T01:58:33;40.72;;;38.38;;
49858;SDS011;35756;52.346;13.622;2023-04-25T02:00:58;57.08;;;53.92;;
49858;SDS011;35756;52.346;13.622;2023-04-25T02:03:24;44.72;;;41.97;;
49858;SDS011;35756;52.346;13.622;2023-04-25T02:05:49;32.88;;;30.85;;
49858;SDS011;35756;52.346;13.622;2023-04-25T02:08:16;32.72;;;30.77;;
49858;SDS011;35756;52.346;13.622;2023-04-25T02:10:41;35.03;;;32.92;;
49858;SDS011;35756;52.346;13.622;2023-04-25T02:13:07;44.83;;;42.05;;
49858;SDS011;35756;52.346;13.622;2023-04-25T02:15:32;42.83;;;40.45;;
49858;SDS011;35756;52.346;13.622;2023-04-25T02:17:57;54.55;;;51.20;;
49858;SDS011;35756;52.346;13.622;2023-04-25T02:20:24;66.72;;;62.92;;
49858;SDS011;35756;52.346;13.622;2023-04-25T02:22:50;52.78;;;49.88;;
49858;SDS011;35756;52.346;13.622;2023-04-25T02:25:16;50.63;;;47.65;;
49858;SDS011;35756;52.346;13.622;2023-04-25T02:27:42;69.55;;;65.82;;
49858;SDS011;35756;52.346;13.622;2023-04-25T02:30:08;34.50;;;32.63;;
49858;SDS011;35756;52.346;13.622;2023-04-25T02:32:33;40.65;;;38.08;;
49858;SDS011;35756;52.346;13.622;2023-04-25T02:35:01;55.58;;;52.38;;
49858;SDS011;35756;52.346;13.622;2023-04-25T02:37:30;94.18;;;88.90;;
49858;SDS011;35756;52.346;13.622;2023-04-25T02:39:56;57.45;;;54.15;;
49858;SDS011;35756;52.346;13.622;2023-04-25T02:42:21;100.82;;;95.60;;
49858;SDS011;35756;52.346;13.622;2023-04-25T02:44:46;77.57;;;73.18;;
49858;SDS011;35756;52.346;13.622;2023-04-25T02:47:12;60.85;;;57.38;;
49858;SDS011;35756;52.346;13.622;2023-04-25T02:49:37;92.20;;;87.40;;
49858;SDS011;35756;52.346;13.622;2023-04-25T02:52:02;98.05;;;93.32;;
49858;SDS011;35756;52.346;13.622;2023-04-25T02:54:27;78.38;;;74.47;;
49858;SDS011;35756;52.346;13.622;2023-04-25T02:56:53;58.50;;;54.97;;
49858;SDS011;35756;52.346;13.622;2023-04-25T02:59:18;77.97;;;73.95;;
49858;SDS011;35756;52.346;13.622;2023-04-25T03:01:43;65.70;;;62.10;;
49858;SDS011;35756;52.346;13.622;2023-04-25T03:04:09;123.25;;;117.00;;
49858;SDS011;35756;52.346;13.622;2023-04-25T03:06:34;136.95;;;130.65;;
49858;SDS011;35756;52.346;13.622;2023-04-25T03:08:59;116.20;;;110.43;;
49858;SDS011;35756;52.346;13.622;2023-04-25T03:11:25;107.28;;;102.05;;
49858;SDS011;35756;52.346;13.622;2023-04-25T03:13:50;96.63;;;91.65;;
49858;SDS011;35756;52.346;13.622;2023-04-25T03:16:15;133.82;;;127.68;;
49858;SDS011;35756;52.346;13.622;2023-04-25T03:18:41;128.68;;;122.20;;
49858;SDS011;35756;52.346;13.622;2023-04-25T03:21:06;154.25;;;147.02;;
49858;SDS011;35756;52.346;13.622;2023-04-25T03:23:31;176.60;;;168.50;;
49858;SDS011;35756;52.346;13.622;2023-04-25T03:25:56;209.27;;;198.73;;
49858;SDS011;35756;52.346;13.622;2023-04-25T03:28:22;270.58;;;257.40;;
49858;SDS011;35756;52.346;13.622;2023-04-25T03:30:47;166.48;;;158.25;;
49858;SDS011;35756;52.346;13.622;2023-04-25T03:33:12;111.20;;;104.78;;
49858;SDS011;35756;52.346;13.622;2023-04-25T03:35:38;114.55;;;108.93;;
49858;SDS011;35756;52.346;13.622;2023-04-25T03:38:03;93.13;;;88.15;;
49858;SDS011;35756;52.346;13.622;2023-04-25T03:40:28;120.25;;;114.38;;
49858;SDS011;35756;52.346;13.622;2023-04-25T03:42:53;226.02;;;215.93;;
49858;SDS011;35756;52.346;13.622;2023-04-25T03:45:19;98.68;;;93.95;;
49858;SDS011;35756;52.346;13.622;2023-04-25T03:47:44;126.57;;;120.53;;
49858;SDS011;35756;52.346;13.622;2023-04-25T03:50:09;132.23;;;126.30;;
49858;SDS011;35756;52.346;13.622;2023-04-25T03:52:35;128.18;;;121.63;;
49858;SDS011;35756;52.346;13.622;2023-04-25T03:55:00;107.63;;;102.47;;
49858;SDS011;35756;52.346;13.622;2023-04-25T03:57:25;160.25;;;152.48;;
49858;SDS011;35756;52.346;13.622;2023-04-25T03:59:51;143.38;;;136.30;;
49858;SDS011;35756;52.346;13.622;2023-04-25T04:02:17;192.73;;;183.55;;
49858;SDS011;35756;52.346;13.622;2023-04-25T04:04:42;134.18;;;127.25;;
49858;SDS011;35756;52.346;13.622;2023-04-25T04:07:09;107.03;;;101.55;;
49858;SDS011;35756;52.346;13.622;2023-04-25T04:09:34;106.25;;;100.90;;
49858;SDS011;35756;52.346;13.622;2023-04-25T04:11:59;134.07;;;127.20;;
49858;SDS011;35756;52.346;13.622;2023-04-25T04:14:26;123.03;;;117.03;;
49858;SDS011;35756;52.346;13.622;2023-04-25T04:16:51;81.97;;;77.72;;
49858;SDS011;35756;52.346;13.622;2023-04-25T04:19:17;110.53;;;104.82;;
49858;SDS011;35756;52.346;13.622;2023-04-25T04:21:42;115.47;;;109.65;;
49858;SDS011;35756;52.346;13.622;2023-04-25T04:24:08;115.30;;;109.85;;
49858;SDS011;35756;52.346;13.622;2023-04-25T04:26:33;109.00;;;103.55;;
49858;SDS011;35756;52.346;13.622;2023-04-25T04:28:59;104.20;;;98.75;;
49858;SDS011;35756;52.346;13.622;2023-04-25T04:31:25;68.80;;;65.00;;
49858;SDS011;35756;52.346;13.622;2023-04-25T04:33:50;70.60;;;66.88;;
49858;SDS011;35756;52.346;13.622;2023-04-25T04:36:16;86.07;;;81.47;;
49858;SDS011;35756;52.346;13.622;2023-04-25T04:38:44;107.35;;;101.80;;
49858;SDS011;35756;52.346;13.622;2023-04-25T04:41:09;99.68;;;94.65;;
49858;SDS011;35756;52.346;13.622;2023-04-25T04:43:35;106.28;;;100.65;;
49858;SDS011;35756;52.346;13.622;2023-04-25T04:46:01;182.57;;;173.90;;
49858;SDS011;35756;52.346;13.622;2023-04-25T04:48:28;167.48;;;159.27;;
49858;SDS011;35756;52.346;13.622;2023-04-25T04:50:53;134.52;;;127.97;;
49858;SDS011;35756;52.346;13.622;2023-04-25T04:53:18;212.98;;;202.88;;
49858;SDS011;35756;52.346;13.622;2023-04-25T04:55:44;284.10;;;271.05;;
49858;SDS011;35756;52.346;13.622;2023-04-25T04:58:09;194.63;;;185.45;;
49858;SDS011;35756;52.346;13.622;2023-04-25T05:00:34;262.80;;;250.80;;
49858;SDS011;35756;52.346;13.622;2023-04-25T05:03:00;201.50;;;192.55;;
49858;SDS011;35756;52.346;13.622;2023-04-25T05:05:25;160.32;;;152.68;;
49858;SDS011;35756;52.346;13.622;2023-04-25T05:07:50;250.75;;;238.27;;
49858;SDS011;35756;52.346;13.622;2023-04-25T05:10:16;172.38;;;164.10;;
49858;SDS011;35756;52.346;13.622;2023-04-25T05:12:42;181.65;;;173.32;;
49858;SDS011;35756;52.346;13.622;2023-04-25T05:15:07;188.75;;;179.48;;
49858;SDS011;35756;52.346;13.622;2023-04-25T05:17:33;247.25;;;235.70;;
49858;SDS011;35756;52.346;13.622;2023-04-25T05:19:58;255.95;;;244.00;;
49858;SDS011;35756;52.346;13.622;2023-04-25T05:22:24;234.73;;;223.13;;
49858;SDS011;35756;52.346;13.622;2023-04-25T05:24:49;288.98;;;275.35;;
49858;SDS011;35756;52.346;13.622;2023-04-25T05:27:16;259.90;;;247.02;;
49858;SDS011;35756;52.346;13.622;2023-04-25T05:29:42;311.60;;;297.27;;
49858;SDS011;35756;52.346;13.622;2023-04-25T05:32:07;254.38;;;242.43;;
49858;SDS011;35756;52.346;13.622;2023-04-25T05:34:34;263.45;;;251.15;;
49858;SDS011;35756;52.346;13.622;2023-04-25T05:36:59;321.63;;;306.10;;
49858;SDS011;35756;52.346;13.622;2023-04-25T05:39:25;607.58;;;573.47;;
49858;SDS011;35756;52.346;13.622;2023-04-25T05:41:51;480.65;;;457.27;;
49858;SDS011;35756;52.346;13.622;2023-04-25T05:44:16;652.05;;;618.58;;
49858;SDS011;35756;52.346;13.622;2023-04-25T05:46:41;492.52;;;468.17;;
49858;SDS011;35756;52.346;13.622;2023-04-25T05:49:06;450.90;;;429.23;;
49858;SDS011;35756;52.346;13.622;2023-04-25T05:51:32;478.92;;;454.90;;
49858;SDS011;35756;52.346;13.622;2023-04-25T05:53:57;524.20;;;497.27;;
49858;SDS011;35756;52.346;13.622;2023-04-25T05:56:22;427.85;;;406.25;;
49858;SDS011;35756;52.346;13.622;2023-04-25T05:58:48;613.40;;;580.50;;
49858;SDS011;35756;52.346;13.622;2023-04-25T06:01:13;648.03;;;613.40;;
49858;SDS011;35756;52.346;13.622;2023-04-25T06:03:39;731.08;;;689.53;;
49858;SDS011;35756;52.346;13.622;2023-04-25T06:06:07;669.15;;;632.85;;
49858;SDS011;35756;52.346;13.622;2023-04-25T06:08:32;676.88;;;640.03;;
49858;SDS011;35756;52.346;13.622;2023-04-25T06:10:58;654.00;;;616.97;;
49858;SDS011;35756;52.346;13.622;2023-04-25T06:13:23;702.38;;;662.55;;
49858;SDS011;35756;52.346;13.622;2023-04-25T06:15:48;700.42;;;660.65;;
49858;SDS011;35756;52.346;13.622;2023-04-25T06:18:14;651.50;;;615.80;;
49858;SDS011;35756;52.346;13.622;2023-04-25T06:20:39;631.22;;;596.35;;
49858;SDS011;35756;52.346;13.622;2023-04-25T06:23:04;564.70;;;536.33;;
49858;SDS011;35756;52.346;13.622;2023-04-25T06:25:30;825.63;;;775.58;;
49858;SDS011;35756;52.346;13.622;2023-04-25T06:27:55;681.58;;;645.13;;
49858;SDS011;35756;52.346;13.622;2023-04-25T06:30:20;758.03;;;715.40;;
49858;SDS011;35756;52.346;13.622;2023-04-25T06:32:49;739.30;;;696.05;;
49858;SDS011;35756;52.346;13.622;2023-04-25T06:35:15;607.20;;;574.88;;
49858;SDS011;35756;52.346;13.622;2023-04-25T06:37:40;632.78;;;597.97;;
49858;SDS011;35756;52.346;13.622;2023-04-25T06:40:05;657.42;;;621.70;;
49858;SDS011;35756;52.346;13.622;2023-04-25T06:42:31;768.33;;;723.20;;
49858;SDS011;35756;52.346;13.622;2023-04-25T06:44:56;817.60;;;767.83;;
49858;SDS011;35756;52.346;13.622;2023-04-25T06:47:21;712.63;;;670.15;;
49858;SDS011;35756;52.346;13.622;2023-04-25T06:49:47;759.75;;;714.60;;
49858;SDS011;35756;52.346;13.622;2023-04-25T06:52:12;849.42;;;794.60;;
49858;SDS011;35756;52.346;13.622;2023-04-25T06:54:37;783.03;;;735.63;;
49858;SDS011;35756;52.346;13.622;2023-04-25T06:57:03;778.63;;;732.03;;
49858;SDS011;35756;52.346;13.622;2023-04-25T06:59:28;837.33;;;785.22;;
49858;SDS011;35756;52.346;13.622;2023-04-25T07:01:53;925.00;;;862.33;;
49858;SDS011;35756;52.346;13.622;2023-04-25T07:04:18;882.28;;;825.17;;
49858;SDS011;35756;52.346;13.622;2023-04-25T07:06:44;906.63;;;848.58;;
49858;SDS011;35756;52.346;13.622;2023-04-25T07:09:09;879.67;;;823.53;;
49858;SDS011;35756;52.346;13.622;2023-04-25T07:11:35;929.47;;;867.45;;
49858;SDS011;35756;52.346;13.622;2023-04-25T07:14:00;941.80;;;875.92;;
49858;SDS011;35756;52.346;13.622;2023-04-25T07:16:26;941.08;;;878.10;;
49858;SDS011;35756;52.346;13.622;2023-04-25T07:18:51;965.33;;;894.58;;
49858;SDS011;35756;52.346;13.622;2023-04-25T07:21:16;977.30;;;908.80;;
49858;SDS011;35756;52.346;13.622;2023-04-25T07:23:41;939.30;;;873.00;;
49858;SDS011;35756;52.346;13.622;2023-04-25T07:26:07;919.63;;;858.17;;
49858;SDS011;35756;52.346;13.622;2023-04-25T07:28:32;876.05;;;816.85;;
49858;SDS011;35756;52.346;13.622;2023-04-25T07:30:58;903.78;;;844.92;;
49858;SDS011;35756;52.346;13.622;2023-04-25T07:33:23;962.22;;;896.95;;
49858;SDS011;35756;52.346;13.622;2023-04-25T07:35:48;908.50;;;847.20;;
49858;SDS011;35756;52.346;13.622;2023-04-25T07:38:14;711.38;;;669.42;;
49858;SDS011;35756;52.346;13.622;2023-04-25T07:40:39;942.92;;;876.50;;
49858;SDS011;35756;52.346;13.622;2023-04-25T07:43:04;971.05;;;903.30;;
49858;SDS011;35756;52.346;13.622;2023-04-25T07:45:30;929.70;;;862.38;;
49858;SDS011;35756;52.346;13.622;2023-04-25T07:47:55;953.20;;;886.78;;
49858;SDS011;35756;52.346;13.622;2023-04-25T07:50:20;942.22;;;878.25;;
49858;SDS011;35756;52.346;13.622;2023-04-25T07:52:46;925.22;;;861.85;;
49858;SDS011;35756;52.346;13.622;2023-04-25T07:55:11;944.15;;;879.75;;
49858;SDS011;35756;52.346;13.622;2023-04-25T07:57:36;957.60;;;890.47;;
49858;SDS011;35756;52.346;13.622;2023-04-25T08:00:03;971.40;;;903.35;;
49858;SDS011;35756;52.346;13.622;2023-04-25T08:02:29;743.47;;;699.35;;
49858;SDS011;35756;52.346;13.622;2023-04-25T08:04:55;636.13;;;599.55;;
49858;SDS011;35756;52.346;13.622;2023-04-25T08:07:20;519.72;;;491.83;;
49858;SDS011;35756;52.346;13.622;2023-04-25T08:09:45;351.15;;;333.50;;
49858;SDS011;35756;52.346;13.622;2023-04-25T08:12:11;370.67;;;351.38;;
49858;SDS011;35756;52.346;13.622;2023-04-25T08:14:36;263.13;;;250.18;;
49858;SDS011;35756;52.346;13.622;2023-04-25T08:17:02;277.45;;;264.02;;
49858;SDS011;35756;52.346;13.622;2023-04-25T08:19:28;116.10;;;109.25;;
49858;SDS011;35756;52.346;13.622;2023-04-25T08:21:54;266.63;;;253.43;;
49858;SDS011;35756;52.346;13.622;2023-04-25T08:24:21;308.55;;;292.95;;
49858;SDS011;35756;52.346;13.622;2023-04-25T08:26:46;437.55;;;415.75;;
49858;SDS011;35756;52.346;13.622;2023-04-25T08:29:11;675.10;;;637.67;;
49858;SDS011;35756;52.346;13.622;2023-04-25T08:31:38;500.58;;;473.65;;
49858;SDS011;35756;52.346;13.622;2023-04-25T08:34:03;599.42;;;567.03;;
49858;SDS011;35756;52.346;13.622;2023-04-25T08:36:28;550.65;;;519.88;;
49858;SDS011;35756;52.346;13.622;2023-04-25T08:38:54;620.88;;;587.17;;
49858;SDS011;35756;52.346;13.622;2023-04-25T08:41:19;685.17;;;645.72;;
49858;SDS011;35756;52.346;13.622;2023-04-25T08:43:46;689.92;;;649.20;;
49858;SDS011;35756;52.346;13.622;2023-04-25T08:46:13;632.20;;;598.38;;
49858;SDS011;35756;52.346;13.622;2023-04-25T08:48:42;737.05;;;693.28;;
49858;SDS011;35756;52.346;13.622;2023-04-25T08:51:07;547.30;;;516.58;;
49858;SDS011;35756;52.346;13.622;2023-04-25T08:53:34;458.17;;;434.40;;
49858;SDS011;35756;52.346;13.622;2023-04-25T08:56:01;536.38;;;508.63;;
49858;SDS011;35756;52.346;13.622;2023-04-25T08:58:27;512.92;;;485.13;;
49858;SDS011;35756;52.346;13.622;2023-04-25T09:00:52;615.60;;;581.63;;
49858;SDS011;35756;52.346;13.622;2023-04-25T09:03:18;255.07;;;241.90;;
49858;SDS011;35756;52.346;13.622;2023-04-25T09:05:43;346.38;;;329.67;;
49858;SDS011;35756;52.346;13.622;2023-04-25T09:08:09;487.65;;;460.23;;
49858;SDS011;35756;52.346;13.622;2023-04-25T09:10:34;872.55;;;818.65;;
49858;SDS011;35756;52.346;13.622;2023-04-25T09:13:08;761.00;;;716.67;;
49858;SDS011;35756;52.346;13.622;2023-04-25T09:15:53;999.28;;;926.97;;
49858;SDS011;35756;52.346;13.622;2023-04-25T09:18:23;993.85;;;919.78;;
49858;SDS011;35756;52.346;13.622;2023-04-25T09:20:56;791.55;;;734.58;;
49858;SDS011;35756;52.346;13.622;2023-04-25T09:23:23;562.58;;;521.28;;
49858;SDS011;35756;52.346;13.622;2023-04-25T09:25:49;1081.05;;;977.65;;
49858;SDS011;35756;52.346;13.622;2023-04-25T09:28:15;1110.53;;;999.90;;
49858;SDS011;35756;52.346;13.622;2023-04-25T09:30:41;1477.32;;;999.90;;
49858;SDS011;35756;52.346;13.622;2023-04-25T09:33:07;1178.70;;;999.90;;
49858;SDS011;35756;52.346;13.622;2023-04-25T09:35:36;1567.75;;;999.90;;
49858;SDS011;35756;52.346;13.622;2023-04-25T09:38:07;1511.20;;;974.30;;
49858;SDS011;35756;52.346;13.622;2023-04-25T09:40:39;904.38;;;589.70;;
49858;SDS011;35756;52.346;13.622;2023-04-25T09:43:24;1897.82;;;999.90;;
49858;SDS011;35756;52.346;13.622;2023-04-25T09:45:50;1999.90;;;999.90;;
49858;SDS011;35756;52.346;13.622;2023-04-25T09:48:20;1550.53;;;779.92;;
49858;SDS011;35756;52.346;13.622;2023-04-25T09:53:31;1999.90;;;999.90;;
49858;SDS011;35756;52.346;13.622;2023-04-25T09:55:58;599.38;;;336.90;;
49858;SDS011;35756;52.346;13.622;2023-04-25T09:58:25;1999.90;;;999.90;;
49858;SDS011;35756;52.346;13.622;2023-04-25T10:00:51;1999.90;;;999.90;;
49858;SDS011;35756;52.346;13.622;2023-04-25T10:03:17;1999.90;;;999.90;;
49858;SDS011;35756;52.346;13.622;2023-04-25T10:05:42;1999.90;;;999.90;;
49858;SDS011;35756;52.346;13.622;2023-04-25T10:08:08;1999.90;;;999.90;;
49858;SDS011;35756;52.346;13.622;2023-04-25T10:10:33;1999.90;;;999.90;;
49858;SDS011;35756;52.346;13.622;2023-04-25T10:13:02;1999.90;;;999.90;;
49858;SDS011;35756;52.346;13.622;2023-04-25T10:15:28;1999.90;;;999.90;;
49858;SDS011;35756;52.346;13.622;2023-04-25T10:17:54;1999.90;;;999.90;;
49858;SDS011;35756;52.346;13.622;2023-04-25T10:20:21;1999.90;;;999.90;;
49858;SDS011;35756;52.346;13.622;2023-04-25T10:22:47;1999.90;;;999.90;;
49858;SDS011;35756;52.346;13.622;2023-04-25T10:25:13;1999.90;;;999.90;;
49858;SDS011;35756;52.346;13.622;2023-04-25T10:27:39;1999.90;;;999.90;;
49858;SDS011;35756;52.346;13.622;2023-04-25T10:30:06;1999.90;;;999.90;;
49858;SDS011;35756;52.346;13.622;2023-04-25T10:32:35;1999.90;;;999.90;;
49858;SDS011;35756;52.346;13.622;2023-04-25T10:35:13;1999.90;;;999.90;;
49858;SDS011;35756;52.346;13.622;2023-04-25T10:40:30;1999.90;;;999.90;;
49858;SDS011;35756;52.346;13.622;2023-04-25T10:42:56;1999.90;;;999.90;;
49858;SDS011;35756;52.346;13.622;2023-04-25T10:45:56;1999.90;;;999.90;;
49858;SDS011;35756;52.346;13.622;2023-04-25T10:48:25;1999.90;;;999.90;;
49858;SDS011;35756;52.346;13.622;2023-04-25T10:51:07;1999.90;;;999.90;;
49858;SDS011;35756;52.346;13.622;2023-04-25T10:53:56;1999.90;;;999.90;;
49858;SDS011;35756;52.346;13.622;2023-04-25T10:56:24;1999.90;;;999.90;;
49858;SDS011;35756;52.346;13.622;2023-04-25T10:58:50;1999.90;;;999.90;;
49858;SDS011;35756;52.346;13.622;2023-04-25T11:01:20;1999.90;;;999.90;;
49858;SDS011;35756;52.346;13.622;2023-04-25T11:03:46;1999.90;;;999.90;;
49858;SDS011;35756;52.346;13.622;2023-04-25T11:06:18;1999.90;;;999.90;;
49858;SDS011;35756;52.346;13.622;2023-04-25T11:08:48;1999.90;;;999.90;;
49858;SDS011;35756;52.346;13.622;2023-04-25T11:11:15;1999.90;;;999.90;;
49858;SDS011;35756;52.346;13.622;2023-04-25T11:13:41;1999.90;;;999.90;;
49858;SDS011;35756;52.346;13.622;2023-04-25T11:16:07;1999.90;;;999.90;;
49858;SDS011;35756;52.346;13.622;2023-04-25T11:18:32;1999.90;;;999.90;;
49858;SDS011;35756;52.346;13.622;2023-04-25T11:20:59;1999.90;;;999.90;;
49858;SDS011;35756;52.346;13.622;2023-04-25T11:23:24;1999.90;;;999.90;;
49858;SDS011;35756;52.346;13.622;2023-04-25T11:25:49;1999.90;;;999.90;;
49858;SDS011;35756;52.346;13.622;2023-04-25T11:28:20;1999.90;;;999.90;;
49858;SDS011;35756;52.346;13.622;2023-04-25T11:30:49;1999.90;;;999.90;;
49858;SDS011;35756;52.346;13.622;2023-04-25T11:33:15;1999.90;;;999.90;;
49858;SDS011;35756;52.346;13.622;2023-04-25T11:35:40;1999.90;;;999.90;;
49858;SDS011;35756;52.346;13.622;2023-04-25T11:38:06;1999.90;;;999.90;;
49858;SDS011;35756;52.346;13.622;2023-04-25T11:40:31;1999.90;;;999.90;;
49858;SDS011;35756;52.346;13.622;2023-04-25T11:42:56;1999.90;;;999.90;;
49858;SDS011;35756;52.346;13.622;2023-04-25T11:45:25;1999.90;;;999.90;;
49858;SDS011;35756;52.346;13.622;2023-04-25T11:47:50;1999.90;;;999.90;;
49858;SDS011;35756;52.346;13.622;2023-04-25T11:50:15;1999.90;;;999.90;;
49858;SDS011;35756;52.346;13.622;2023-04-25T11:52:42;1999.90;;;999.90;;
49858;SDS011;35756;52.346;13.622;2023-04-25T11:55:18;1999.90;;;999.90;;
49858;SDS011;35756;52.346;13.622;2023-04-25T11:57:46;1999.90;;;999.90;;
49858;SDS011;35756;52.346;13.622;2023-04-25T12:00:18;1999.90;;;999.90;;
49858;SDS011;35756;52.346;13.622;2023-04-25T12:02:51;1999.90;;;999.90;;
49858;SDS011;35756;52.346;13.622;2023-04-25T12:05:17;1999.90;;;999.90;;
49858;SDS011;35756;52.346;13.622;2023-04-25T12:07:43;1999.90;;;999.90;;
49858;SDS011;35756;52.346;13.622;2023-04-25T12:10:09;1999.90;;;999.90;;
49858;SDS011;35756;52.346;13.622;2023-04-25T12:12:40;1999.90;;;999.90;;
49858;SDS011;35756;52.346;13.622;2023-04-25T12:15:10;1999.90;;;999.90;;
49858;SDS011;35756;52.346;13.622;2023-04-25T12:17:49;1999.90;;;999.90;;
49858;SDS011;35756;52.346;13.622;2023-04-25T12:20:19;1999.90;;;999.90;;
49858;SDS011;35756;52.346;13.622;2023-04-25T12:22:51;1999.90;;;999.90;;
49858;SDS011;35756;52.346;13.622;2023-04-25T12:28:23;1999.90;;;999.90;;
49858;SDS011;35756;52.346;13.622;2023-04-25T12:30:57;1999.90;;;999.90;;
49858;SDS011;35756;52.346;13.622;2023-04-25T12:33:36;1999.90;;;999.90;;
49858;SDS011;35756;52.346;13.622;2023-04-25T12:36:02;1999.90;;;999.90;;
49858;SDS011;35756;52.346;13.622;2023-04-25T12:38:35;1999.90;;;999.90;;
49858;SDS011;35756;52.346;13.622;2023-04-25T12:41:01;737.90;;;525.25;;
49858;SDS011;35756;52.346;13.622;2023-04-25T12:43:27;1149.85;;;740.30;;
49858;SDS011;35756;52.346;13.622;2023-04-25T12:45:52;1999.90;;;999.90;;
49858;SDS011;35756;52.346;13.622;2023-04-25T12:48:19;1999.90;;;999.90;;
49858;SDS011;35756;52.346;13.622;2023-04-25T12:50:45;1999.90;;;999.90;;
49858;SDS011;35756;52.346;13.622;2023-04-25T12:53:12;1999.90;;;999.90;;
49858;SDS011;35756;52.346;13.622;2023-04-25T12:55:38;1999.90;;;999.90;;
49858;SDS011;35756;52.346;13.622;2023-04-25T12:58:03;1999.90;;;999.90;;
49858;SDS011;35756;52.346;13.622;2023-04-25T13:00:29;1999.90;;;999.90;;
49858;SDS011;35756;52.346;13.622;2023-04-25T13:02:55;1424.22;;;785.13;;
49858;SDS011;35756;52.346;13.622;2023-04-25T13:05:20;1999.90;;;999.90;;
49858;SDS011;35756;52.346;13.622;2023-04-25T13:07:46;1482.95;;;870.13;;
49858;SDS011;35756;52.346;13.622;2023-04-25T13:10:11;1401.07;;;777.65;;
49858;SDS011;35756;52.346;13.622;2023-04-25T13:12:36;1222.68;;;838.30;;
49858;SDS011;35756;52.346;13.622;2023-04-25T13:15:02;1492.72;;;892.72;;
49858;SDS011;35756;52.346;13.622;2023-04-25T13:17:27;1722.13;;;929.67;;
49858;SDS011;35756;52.346;13.622;2023-04-25T13:19:52;813.78;;;672.92;;
49858;SDS011;35756;52.346;13.622;2023-04-25T13:22:18;932.60;;;762.03;;
49858;SDS011;35756;52.346;13.622;2023-04-25T13:24:45;891.08;;;795.08;;
49858;SDS011;35756;52.346;13.622;2023-04-25T13:27:13;944.40;;;849.25;;
49858;SDS011;35756;52.346;13.622;2023-04-25T13:29:38;940.67;;;827.47;;
49858;SDS011;35756;52.346;13.622;2023-04-25T13:32:05;881.33;;;759.00;;
49858;SDS011;35756;52.346;13.622;2023-04-25T13:34:30;1999.90;;;999.90;;
49858;SDS011;35756;52.346;13.622;2023-04-25T13:36:56;1334.82;;;749.78;;
49858;SDS011;35756;52.346;13.622;2023-04-25T13:39:21;1358.22;;;749.95;;
49858;SDS011;35756;52.346;13.622;2023-04-25T13:41:47;1109.57;;;722.55;;
49858;SDS011;35756;52.346;13.622;2023-04-25T13:44:12;1999.90;;;999.90;;
49858;SDS011;35756;52.346;13.622;2023-04-25T13:46:37;1162.82;;;774.50;;
49858;SDS011;35756;52.346;13.622;2023-04-25T13:49:05;1999.90;;;999.90;;
49858;SDS011;35756;52.346;13.622;2023-04-25T13:51:31;1999.90;;;999.90;;